AirNav   Everest Fuels
 
 1500 users online  

7NC1 Stag Air Park
Burgaw, North Carolina, USA

GOING TO BURGAW?


FAA INFORMATION EFFECTIVE 09 SEPTEMBER 2021

Location

FAA Identifier: 7NC1
Lat/Long: 34-31-40.6010N 077-51-00.9410W
34-31.676683N 077-51.015683W
34.5279447,-77.8502614
(estimated)
Elevation: 23 ft. / 7.0 m (surveyed)
Variation: 07W (1985)
From city: 2 miles E of BURGAW, NC
Time zone: UTC -4 (UTC -5 during Standard Time)
Zip code: 28425

Airport Operations

Airport use: Private use. Permission required prior to landing
Activation date: 04/1987
Control tower: no
ARTCC: WASHINGTON CENTER
FSS: RALEIGH FLIGHT SERVICE STATION
Attendance: UNATNDD
Wind indicator: yes
Segmented circle: no

Airport Communications

WX ASOS at ILM (16 nm S): PHONE 910-254-5254

Nearby radio navigation aids

VOR radial/distance  VOR name  Freq  Var
ILMr013/10.6WILMINGTON VORTAC117.0007W

 
NDB name  Hdg/Dist  Freq  Var  ID
WILZE001/11.620510WGM --. --
DIXON271/19.819808WDIW -.. .. .--
CAROLINA BEACH021/25.921609WCLB -.-. .-.. -...
CLINTON146/36.841209WCTZ -.-. - --..

Airport Services

Fuel available: 100LL

Runway Information

Runway 11/29

Dimensions: 4000 x 125 ft. / 1219 x 38 m
Surface: turf
RUNWAY 11  RUNWAY 29
Traffic pattern: leftleft
Obstructions: treesnone

Airport Ownership and Management from official FAA records

Ownership: Privately-owned
Owner: STAG AIR PARK INC
91 AVIATOR LANE
BURGAW, NC 28425
Phone 910-686-9612
Manager: MICHAEL L. CORN
245 CREEKSIDE EAST DRIVE
WILMINGTON, NC 28411
Phone 910-686-9612

Airport Operational Statistics

Aircraft based on the field: 17
Single engine airplanes: 13
Multi engine airplanes: 1
Helicopters: 3
    

Additional Remarks

FOR CD CTC WASHINGTON ARTCC AT 703-771-3587.

Instrument Procedures

There are no published instrument procedures at 7NC1.

Some nearby airports with instrument procedures:

KACZ - Henderson Field Airport (14 nm NW)
KILM - Wilmington International Airport (16 nm S)
KOAJ - Albert J Ellis Airport (22 nm NE)
KNCA - New River Marine Corps Air Station (H) (McCutcheon Field) (23 nm NE)
KDPL - Duplin County Airport (29 nm N)
 
Loc | Ops | Rwys | IFR | FBO | Links
Com | Nav | Svcs | Stats | Notes
Area around 7NC1 (Stag Air Park)
 
Road maps at: MapQuest Bing Google
 
Aerial photo
WARNING: Photo may not be current or correct
Aerial photo of 7NC1 (Stag Air Park)
Photo taken 19-Jun-2007
looking down runway 29

Do you have a better or more recent aerial photo of Stag Air Park that you would like to share? If so, please send us your photo.

 
Sectional chart

 
Airport distance calculator
Flying to Stag Air Park? Find the distance to fly.

From to 7NC1

Sunrise and sunset
Times for 23-Sep-2021
 Local
(UTC-4)
 Zulu
(UTC)
Morning civil twilight06:3610:36
Sunrise07:0111:01
Sunset19:0623:06
Evening civil twilight19:3223:32

Current date and time
Zulu (UTC)  23-Sep-2021 14:31:56
Local (UTC-4)  23-Sep-2021 10:31:56
 
METAR
KILM 
16nm S 
231353Z 30006KT 6SM BR OVC005 23/22 A2986 RMK AO2 SLP112 T02330222
KOAJ 
21nm NE 
231423Z VRB06KT 2 1/2SM -RA BR BKN008 OVC011 19/18 A2989 RMK AO2 VIS 1 1/2V5 RAB19 P0000
KNCA 
23nm NE 
231420Z 31012KT 2 1/2SM -RA BR BKN007 OVC011 22/21 A2986 RMK AO2 WSHFT 1405 RAB09 CIG 004V009 P0000 T02170211
KDPL 
29nm N 
231415Z 10SM OVC023 20/15 A2990 RMK AO2
TAF
KILM 
16nm S 
231407Z 2314/2412 30008KT P6SM OVC005 TEMPO 2315/2317 BKN010 FM231700 33006KT P6SM SCT015 FM240000 36006KT P6SM FEW090
NOTAMs
Click for the latest NOTAMs
NOTAMs are issued by the DoD/FAA and will open in a separate window not controlled by AirNav.

 

 
 

FBO, Fuel Providers, and Aircraft Ground Support

  
 Business Name 
 
 Contact 
 
 Services / Description 
 
Fuel Prices
 
Comments
  
Stag Air Park 910-686-9612 Airport management, Aviation fuel, Aircraft parking (ramp or tiedown), Organization with aviation interests, Restrooms

More info about Stag Air Park
independent
100LL
SS $4.75 
 Updated 04-Jan-2018
 
   write
SS=Self service
Update Fuel Prices
 

Would you like to see your business listed on this page?

 If your business provides an interesting product or service to pilots, flight crews, aircraft, or users of the Stag Air Park, you should consider listing it here.  To start the listing process, click on the button below
 
Add a business
 

Other Pages about Stag Air Park

www.stagairpark.com
 
Update a link
 
Copyright © AirNav, LLC. All rights reserved. Privacy Policy  Contact